sensor_id;sensor_type;location;lat;lon;timestamp;P1;durP1;ratioP1;P2;durP2;ratioP2
53513;SDS011;39768;54.148;12.174;2022-08-19T00:02:00;22.05;;;11.35;;
53513;SDS011;39768;54.148;12.174;2022-08-19T00:06:02;22.80;;;11.50;;
53513;SDS011;39768;54.148;12.174;2022-08-19T00:10:05;15.00;;;9.10;;
53513;SDS011;39768;54.148;12.174;2022-08-19T00:14:09;14.07;;;8.57;;
53513;SDS011;39768;54.148;12.174;2022-08-19T00:18:12;13.07;;;7.95;;
53513;SDS011;39768;54.148;12.174;2022-08-19T00:22:14;12.38;;;7.78;;
53513;SDS011;39768;54.148;12.174;2022-08-19T00:26:15;11.55;;;7.28;;
53513;SDS011;39768;54.148;12.174;2022-08-19T00:30:17;14.95;;;8.35;;
53513;SDS011;39768;54.148;12.174;2022-08-19T00:34:18;13.43;;;7.75;;
53513;SDS011;39768;54.148;12.174;2022-08-19T00:38:20;16.13;;;9.02;;
53513;SDS011;39768;54.148;12.174;2022-08-19T00:42:38;18.15;;;8.38;;
53513;SDS011;39768;54.148;12.174;2022-08-19T00:46:40;15.32;;;8.05;;
53513;SDS011;39768;54.148;12.174;2022-08-19T00:50:58;16.13;;;9.57;;
53513;SDS011;39768;54.148;12.174;2022-08-19T00:55:00;16.80;;;8.23;;
53513;SDS011;39768;54.148;12.174;2022-08-19T00:59:03;17.65;;;10.52;;
53513;SDS011;39768;54.148;12.174;2022-08-19T01:03:12;17.73;;;8.98;;
53513;SDS011;39768;54.148;12.174;2022-08-19T01:07:19;15.23;;;9.15;;
53513;SDS011;39768;54.148;12.174;2022-08-19T01:11:21;17.95;;;9.70;;
53513;SDS011;39768;54.148;12.174;2022-08-19T01:15:24;14.98;;;9.27;;
53513;SDS011;39768;54.148;12.174;2022-08-19T01:19:32;17.00;;;9.57;;
53513;SDS011;39768;54.148;12.174;2022-08-19T01:23:44;12.43;;;9.07;;
53513;SDS011;39768;54.148;12.174;2022-08-19T01:27:48;12.75;;;8.18;;
53513;SDS011;39768;54.148;12.174;2022-08-19T01:31:53;18.10;;;9.90;;
53513;SDS011;39768;54.148;12.174;2022-08-19T01:36:02;22.40;;;9.77;;
53513;SDS011;39768;54.148;12.174;2022-08-19T01:40:05;13.32;;;8.68;;
53513;SDS011;39768;54.148;12.174;2022-08-19T01:44:10;20.05;;;8.23;;
53513;SDS011;39768;54.148;12.174;2022-08-19T01:48:19;16.83;;;8.32;;
53513;SDS011;39768;54.148;12.174;2022-08-19T01:52:20;14.93;;;8.35;;
53513;SDS011;39768;54.148;12.174;2022-08-19T01:56:22;15.77;;;8.52;;
53513;SDS011;39768;54.148;12.174;2022-08-19T02:00:26;15.48;;;9.55;;
53513;SDS011;39768;54.148;12.174;2022-08-19T02:04:30;16.73;;;10.20;;
53513;SDS011;39768;54.148;12.174;2022-08-19T02:08:33;23.58;;;9.10;;
53513;SDS011;39768;54.148;12.174;2022-08-19T02:12:37;19.58;;;9.10;;
53513;SDS011;39768;54.148;12.174;2022-08-19T02:16:38;18.23;;;9.75;;
53513;SDS011;39768;54.148;12.174;2022-08-19T02:20:41;12.85;;;8.38;;
53513;SDS011;39768;54.148;12.174;2022-08-19T02:24:43;13.40;;;7.88;;
53513;SDS011;39768;54.148;12.174;2022-08-19T02:28:45;14.32;;;8.00;;
53513;SDS011;39768;54.148;12.174;2022-08-19T02:32:47;14.35;;;7.80;;
53513;SDS011;39768;54.148;12.174;2022-08-19T02:36:48;10.23;;;7.75;;
53513;SDS011;39768;54.148;12.174;2022-08-19T02:40:53;16.05;;;8.40;;
53513;SDS011;39768;54.148;12.174;2022-08-19T02:45:03;14.23;;;7.68;;
53513;SDS011;39768;54.148;12.174;2022-08-19T02:49:06;13.10;;;8.15;;
53513;SDS011;39768;54.148;12.174;2022-08-19T02:53:09;13.82;;;7.88;;
53513;SDS011;39768;54.148;12.174;2022-08-19T02:57:13;12.23;;;7.72;;
53513;SDS011;39768;54.148;12.174;2022-08-19T03:01:25;15.02;;;8.02;;
53513;SDS011;39768;54.148;12.174;2022-08-19T03:05:28;17.45;;;8.00;;
53513;SDS011;39768;54.148;12.174;2022-08-19T03:09:50;13.60;;;8.02;;
53513;SDS011;39768;54.148;12.174;2022-08-19T03:13:52;14.57;;;7.82;;
53513;SDS011;39768;54.148;12.174;2022-08-19T03:17:54;17.50;;;8.80;;
53513;SDS011;39768;54.148;12.174;2022-08-19T03:21:57;21.10;;;8.80;;
53513;SDS011;39768;54.148;12.174;2022-08-19T03:26:02;13.25;;;7.72;;
53513;SDS011;39768;54.148;12.174;2022-08-19T03:30:17;18.70;;;8.27;;
53513;SDS011;39768;54.148;12.174;2022-08-19T03:34:24;14.73;;;8.57;;
53513;SDS011;39768;54.148;12.174;2022-08-19T03:38:27;25.17;;;10.00;;
53513;SDS011;39768;54.148;12.174;2022-08-19T03:42:29;20.17;;;9.32;;
53513;SDS011;39768;54.148;12.174;2022-08-19T03:46:51;26.05;;;9.70;;
53513;SDS011;39768;54.148;12.174;2022-08-19T03:50:56;21.83;;;8.60;;
53513;SDS011;39768;54.148;12.174;2022-08-19T03:55:00;15.50;;;7.93;;
53513;SDS011;39768;54.148;12.174;2022-08-19T03:59:02;16.27;;;7.72;;
53513;SDS011;39768;54.148;12.174;2022-08-19T04:03:05;21.85;;;7.82;;
53513;SDS011;39768;54.148;12.174;2022-08-19T04:07:07;20.17;;;9.02;;
53513;SDS011;39768;54.148;12.174;2022-08-19T04:11:14;17.92;;;8.43;;
53513;SDS011;39768;54.148;12.174;2022-08-19T04:15:18;20.17;;;9.57;;
53513;SDS011;39768;54.148;12.174;2022-08-19T04:19:20;17.35;;;8.30;;
53513;SDS011;39768;54.148;12.174;2022-08-19T04:23:23;14.27;;;7.95;;
53513;SDS011;39768;54.148;12.174;2022-08-19T04:27:24;23.92;;;8.00;;
53513;SDS011;39768;54.148;12.174;2022-08-19T04:31:27;15.38;;;7.57;;
53513;SDS011;39768;54.148;12.174;2022-08-19T04:35:36;23.75;;;8.82;;
53513;SDS011;39768;54.148;12.174;2022-08-19T04:39:39;19.92;;;7.93;;
53513;SDS011;39768;54.148;12.174;2022-08-19T04:44:02;25.17;;;9.77;;
53513;SDS011;39768;54.148;12.174;2022-08-19T04:48:05;14.00;;;7.75;;
53513;SDS011;39768;54.148;12.174;2022-08-19T04:52:26;21.15;;;8.57;;
53513;SDS011;39768;54.148;12.174;2022-08-19T04:56:28;22.33;;;8.55;;
53513;SDS011;39768;54.148;12.174;2022-08-19T05:00:30;25.15;;;9.55;;
53513;SDS011;39768;54.148;12.174;2022-08-19T05:04:35;25.63;;;10.02;;
53513;SDS011;39768;54.148;12.174;2022-08-19T05:08:40;22.48;;;9.48;;
53513;SDS011;39768;54.148;12.174;2022-08-19T05:12:44;28.20;;;9.48;;
53513;SDS011;39768;54.148;12.174;2022-08-19T05:16:45;27.77;;;9.32;;
53513;SDS011;39768;54.148;12.174;2022-08-19T05:20:47;28.70;;;9.70;;
53513;SDS011;39768;54.148;12.174;2022-08-19T05:25:08;27.98;;;9.68;;
53513;SDS011;39768;54.148;12.174;2022-08-19T05:29:15;24.00;;;9.00;;
53513;SDS011;39768;54.148;12.174;2022-08-19T05:33:19;29.17;;;9.90;;
53513;SDS011;39768;54.148;12.174;2022-08-19T05:37:20;28.58;;;9.40;;
53513;SDS011;39768;54.148;12.174;2022-08-19T05:41:23;36.55;;;11.43;;
53513;SDS011;39768;54.148;12.174;2022-08-19T05:45:30;23.85;;;9.50;;
53513;SDS011;39768;54.148;12.174;2022-08-19T05:49:32;35.47;;;9.80;;
53513;SDS011;39768;54.148;12.174;2022-08-19T05:53:34;31.20;;;9.60;;
53513;SDS011;39768;54.148;12.174;2022-08-19T05:57:37;26.58;;;9.80;;
53513;SDS011;39768;54.148;12.174;2022-08-19T06:01:40;28.73;;;9.98;;
53513;SDS011;39768;54.148;12.174;2022-08-19T06:05:43;26.00;;;9.52;;
53513;SDS011;39768;54.148;12.174;2022-08-19T06:09:52;28.02;;;8.75;;
53513;SDS011;39768;54.148;12.174;2022-08-19T06:18:05;21.67;;;8.48;;
53513;SDS011;39768;54.148;12.174;2022-08-19T06:22:07;26.35;;;10.13;;
53513;SDS011;39768;54.148;12.174;2022-08-19T06:26:11;22.33;;;9.63;;
53513;SDS011;39768;54.148;12.174;2022-08-19T06:30:13;28.13;;;9.88;;
53513;SDS011;39768;54.148;12.174;2022-08-19T06:34:16;29.15;;;9.55;;
53513;SDS011;39768;54.148;12.174;2022-08-19T06:38:18;36.88;;;9.90;;
53513;SDS011;39768;54.148;12.174;2022-08-19T06:42:21;22.90;;;9.68;;
53513;SDS011;39768;54.148;12.174;2022-08-19T06:46:24;29.40;;;9.80;;
53513;SDS011;39768;54.148;12.174;2022-08-19T06:50:25;29.08;;;10.57;;
53513;SDS011;39768;54.148;12.174;2022-08-19T06:54:27;29.10;;;11.15;;
53513;SDS011;39768;54.148;12.174;2022-08-19T06:58:31;26.30;;;11.80;;
53513;SDS011;39768;54.148;12.174;2022-08-19T07:02:33;25.08;;;10.75;;
53513;SDS011;39768;54.148;12.174;2022-08-19T07:06:38;29.35;;;10.77;;
53513;SDS011;39768;54.148;12.174;2022-08-19T07:10:45;24.67;;;10.55;;
53513;SDS011;39768;54.148;12.174;2022-08-19T07:14:47;31.95;;;11.23;;
53513;SDS011;39768;54.148;12.174;2022-08-19T07:18:50;23.65;;;9.75;;
53513;SDS011;39768;54.148;12.174;2022-08-19T07:22:52;29.50;;;10.20;;
53513;SDS011;39768;54.148;12.174;2022-08-19T07:26:55;25.80;;;9.73;;
53513;SDS011;39768;54.148;12.174;2022-08-19T07:31:01;24.38;;;9.60;;
53513;SDS011;39768;54.148;12.174;2022-08-19T07:35:06;23.05;;;8.70;;
53513;SDS011;39768;54.148;12.174;2022-08-19T07:39:25;27.27;;;8.30;;
53513;SDS011;39768;54.148;12.174;2022-08-19T07:43:28;18.92;;;8.40;;
53513;SDS011;39768;54.148;12.174;2022-08-19T07:47:35;42.15;;;10.65;;
53513;SDS011;39768;54.148;12.174;2022-08-19T07:52:01;29.02;;;8.68;;
53513;SDS011;39768;54.148;12.174;2022-08-19T07:56:06;19.98;;;8.45;;
53513;SDS011;39768;54.148;12.174;2022-08-19T08:00:08;22.02;;;8.68;;
53513;SDS011;39768;54.148;12.174;2022-08-19T08:04:12;21.10;;;9.65;;
53513;SDS011;39768;54.148;12.174;2022-08-19T08:08:32;30.65;;;9.98;;
53513;SDS011;39768;54.148;12.174;2022-08-19T08:12:48;19.20;;;8.35;;
53513;SDS011;39768;54.148;12.174;2022-08-19T08:17:10;18.55;;;8.85;;
53513;SDS011;39768;54.148;12.174;2022-08-19T08:21:12;20.40;;;9.40;;
53513;SDS011;39768;54.148;12.174;2022-08-19T08:25:17;19.35;;;8.63;;
53513;SDS011;39768;54.148;12.174;2022-08-19T08:29:22;18.05;;;8.70;;
53513;SDS011;39768;54.148;12.174;2022-08-19T08:33:27;15.35;;;7.30;;
53513;SDS011;39768;54.148;12.174;2022-08-19T08:37:35;18.83;;;8.00;;
53513;SDS011;39768;54.148;12.174;2022-08-19T08:41:51;19.90;;;7.95;;
53513;SDS011;39768;54.148;12.174;2022-08-19T08:46:06;22.23;;;8.10;;
53513;SDS011;39768;54.148;12.174;2022-08-19T08:50:13;24.08;;;8.48;;
53513;SDS011;39768;54.148;12.174;2022-08-19T08:54:20;18.87;;;8.33;;
53513;SDS011;39768;54.148;12.174;2022-08-19T08:58:30;23.60;;;9.45;;
53513;SDS011;39768;54.148;12.174;2022-08-19T09:02:43;27.95;;;9.27;;
53513;SDS011;39768;54.148;12.174;2022-08-19T09:10:58;19.48;;;7.80;;
53513;SDS011;39768;54.148;12.174;2022-08-19T09:15:09;21.63;;;8.68;;
53513;SDS011;39768;54.148;12.174;2022-08-19T09:19:13;29.80;;;10.80;;
53513;SDS011;39768;54.148;12.174;2022-08-19T09:23:22;16.77;;;9.20;;
53513;SDS011;39768;54.148;12.174;2022-08-19T09:27:27;19.13;;;9.60;;
53513;SDS011;39768;54.148;12.174;2022-08-19T09:31:43;24.23;;;8.52;;
53513;SDS011;39768;54.148;12.174;2022-08-19T09:35:45;17.23;;;8.98;;
53513;SDS011;39768;54.148;12.174;2022-08-19T09:43:56;19.17;;;7.00;;
53513;SDS011;39768;54.148;12.174;2022-08-19T09:47:59;16.15;;;7.00;;
53513;SDS011;39768;54.148;12.174;2022-08-19T09:52:03;14.90;;;8.40;;
53513;SDS011;39768;54.148;12.174;2022-08-19T09:56:05;14.20;;;8.25;;
53513;SDS011;39768;54.148;12.174;2022-08-19T10:00:08;14.05;;;7.80;;
53513;SDS011;39768;54.148;12.174;2022-08-19T10:04:11;18.08;;;8.25;;
53513;SDS011;39768;54.148;12.174;2022-08-19T10:08:25;20.48;;;9.13;;
53513;SDS011;39768;54.148;12.174;2022-08-19T10:12:29;16.98;;;8.30;;
53513;SDS011;39768;54.148;12.174;2022-08-19T10:16:31;18.17;;;9.40;;
53513;SDS011;39768;54.148;12.174;2022-08-19T10:20:39;18.90;;;8.90;;
53513;SDS011;39768;54.148;12.174;2022-08-19T10:24:43;21.45;;;9.18;;
53513;SDS011;39768;54.148;12.174;2022-08-19T10:28:45;16.55;;;7.82;;
53513;SDS011;39768;54.148;12.174;2022-08-19T10:32:47;18.42;;;8.30;;
53513;SDS011;39768;54.148;12.174;2022-08-19T10:36:49;16.45;;;8.68;;
53513;SDS011;39768;54.148;12.174;2022-08-19T10:40:56;18.83;;;8.88;;
53513;SDS011;39768;54.148;12.174;2022-08-19T10:44:58;18.27;;;9.57;;
53513;SDS011;39768;54.148;12.174;2022-08-19T10:49:02;25.90;;;10.13;;
53513;SDS011;39768;54.148;12.174;2022-08-19T10:53:06;26.98;;;10.30;;
53513;SDS011;39768;54.148;12.174;2022-08-19T10:57:12;22.40;;;10.07;;
53513;SDS011;39768;54.148;12.174;2022-08-19T11:01:14;21.38;;;9.32;;
53513;SDS011;39768;54.148;12.174;2022-08-19T11:05:16;23.63;;;8.88;;
53513;SDS011;39768;54.148;12.174;2022-08-19T11:09:20;13.50;;;7.78;;
53513;SDS011;39768;54.148;12.174;2022-08-19T11:13:35;18.80;;;10.05;;
53513;SDS011;39768;54.148;12.174;2022-08-19T11:17:38;16.30;;;8.52;;
53513;SDS011;39768;54.148;12.174;2022-08-19T11:21:45;18.85;;;8.90;;
53513;SDS011;39768;54.148;12.174;2022-08-19T11:25:49;19.55;;;9.10;;
53513;SDS011;39768;54.148;12.174;2022-08-19T11:29:51;25.65;;;10.45;;
53513;SDS011;39768;54.148;12.174;2022-08-19T11:33:55;19.63;;;9.50;;
53513;SDS011;39768;54.148;12.174;2022-08-19T11:37:58;19.42;;;8.90;;
53513;SDS011;39768;54.148;12.174;2022-08-19T11:42:02;17.25;;;8.55;;
53513;SDS011;39768;54.148;12.174;2022-08-19T11:46:25;16.33;;;8.57;;
53513;SDS011;39768;54.148;12.174;2022-08-19T11:50:30;19.55;;;10.13;;
53513;SDS011;39768;54.148;12.174;2022-08-19T11:54:32;16.10;;;8.40;;
53513;SDS011;39768;54.148;12.174;2022-08-19T11:58:34;23.65;;;9.55;;
53513;SDS011;39768;54.148;12.174;2022-08-19T12:02:36;26.52;;;10.23;;
53513;SDS011;39768;54.148;12.174;2022-08-19T12:06:38;17.63;;;9.10;;
53513;SDS011;39768;54.148;12.174;2022-08-19T12:10:40;19.40;;;8.98;;
53513;SDS011;39768;54.148;12.174;2022-08-19T12:14:43;17.52;;;9.15;;
53513;SDS011;39768;54.148;12.174;2022-08-19T12:18:45;18.48;;;8.65;;
53513;SDS011;39768;54.148;12.174;2022-08-19T12:22:47;15.18;;;8.20;;
53513;SDS011;39768;54.148;12.174;2022-08-19T12:26:49;17.38;;;8.57;;
53513;SDS011;39768;54.148;12.174;2022-08-19T12:30:55;16.95;;;9.07;;
53513;SDS011;39768;54.148;12.174;2022-08-19T12:34:57;25.73;;;10.65;;
53513;SDS011;39768;54.148;12.174;2022-08-19T12:38:59;17.40;;;8.98;;
53513;SDS011;39768;54.148;12.174;2022-08-19T12:43:03;18.77;;;9.80;;
53513;SDS011;39768;54.148;12.174;2022-08-19T12:47:08;18.27;;;8.82;;
53513;SDS011;39768;54.148;12.174;2022-08-19T12:51:13;17.65;;;8.55;;
53513;SDS011;39768;54.148;12.174;2022-08-19T12:55:17;24.25;;;9.40;;
53513;SDS011;39768;54.148;12.174;2022-08-19T12:59:19;19.88;;;9.82;;
53513;SDS011;39768;54.148;12.174;2022-08-19T13:03:21;15.98;;;8.32;;
53513;SDS011;39768;54.148;12.174;2022-08-19T13:07:31;14.43;;;9.13;;
53513;SDS011;39768;54.148;12.174;2022-08-19T13:11:33;18.45;;;9.82;;
53513;SDS011;39768;54.148;12.174;2022-08-19T13:15:37;19.50;;;9.52;;
53513;SDS011;39768;54.148;12.174;2022-08-19T13:19:41;20.98;;;8.65;;
53513;SDS011;39768;54.148;12.174;2022-08-19T13:23:42;14.65;;;8.70;;
53513;SDS011;39768;54.148;12.174;2022-08-19T13:27:44;19.92;;;9.60;;
53513;SDS011;39768;54.148;12.174;2022-08-19T13:31:46;19.77;;;9.93;;
53513;SDS011;39768;54.148;12.174;2022-08-19T13:36:07;11.65;;;7.75;;
53513;SDS011;39768;54.148;12.174;2022-08-19T13:40:10;15.73;;;7.63;;
53513;SDS011;39768;54.148;12.174;2022-08-19T13:44:19;13.05;;;8.05;;
53513;SDS011;39768;54.148;12.174;2022-08-19T13:48:21;15.15;;;7.35;;
53513;SDS011;39768;54.148;12.174;2022-08-19T13:52:24;17.40;;;9.52;;
53513;SDS011;39768;54.148;12.174;2022-08-19T13:56:26;23.50;;;9.98;;
53513;SDS011;39768;54.148;12.174;2022-08-19T14:00:31;18.00;;;8.70;;
53513;SDS011;39768;54.148;12.174;2022-08-19T14:04:34;12.25;;;7.20;;
53513;SDS011;39768;54.148;12.174;2022-08-19T14:08:36;15.18;;;7.18;;
53513;SDS011;39768;54.148;12.174;2022-08-19T14:12:46;13.45;;;7.55;;
53513;SDS011;39768;54.148;12.174;2022-08-19T14:16:48;15.55;;;7.72;;
53513;SDS011;39768;54.148;12.174;2022-08-19T14:20:51;12.00;;;7.13;;
53513;SDS011;39768;54.148;12.174;2022-08-19T14:24:52;12.20;;;6.45;;
53513;SDS011;39768;54.148;12.174;2022-08-19T14:28:54;12.20;;;6.82;;
53513;SDS011;39768;54.148;12.174;2022-08-19T14:32:59;11.18;;;6.80;;
53513;SDS011;39768;54.148;12.174;2022-08-19T14:37:02;11.65;;;6.88;;
53513;SDS011;39768;54.148;12.174;2022-08-19T14:41:12;10.57;;;6.45;;
53513;SDS011;39768;54.148;12.174;2022-08-19T14:45:20;11.35;;;6.55;;
53513;SDS011;39768;54.148;12.174;2022-08-19T14:49:22;17.38;;;6.15;;
53513;SDS011;39768;54.148;12.174;2022-08-19T14:53:35;10.15;;;6.95;;
53513;SDS011;39768;54.148;12.174;2022-08-19T14:57:36;10.35;;;6.95;;
53513;SDS011;39768;54.148;12.174;2022-08-19T15:01:38;13.68;;;5.47;;
53513;SDS011;39768;54.148;12.174;2022-08-19T15:05:40;8.65;;;4.47;;
53513;SDS011;39768;54.148;12.174;2022-08-19T15:09:41;8.50;;;5.15;;
53513;SDS011;39768;54.148;12.174;2022-08-19T15:13:43;4.97;;;3.42;;
53513;SDS011;39768;54.148;12.174;2022-08-19T15:17:47;5.97;;;4.80;;
53513;SDS011;39768;54.148;12.174;2022-08-19T15:21:49;6.07;;;5.25;;
53513;SDS011;39768;54.148;12.174;2022-08-19T15:25:51;11.00;;;5.68;;
53513;SDS011;39768;54.148;12.174;2022-08-19T15:29:57;14.85;;;5.80;;
53513;SDS011;39768;54.148;12.174;2022-08-19T15:34:02;7.93;;;6.07;;
53513;SDS011;39768;54.148;12.174;2022-08-19T15:38:04;6.78;;;5.35;;
53513;SDS011;39768;54.148;12.174;2022-08-19T15:42:06;11.07;;;6.07;;
53513;SDS011;39768;54.148;12.174;2022-08-19T15:46:09;9.05;;;6.30;;
53513;SDS011;39768;54.148;12.174;2022-08-19T15:50:18;10.40;;;6.72;;
53513;SDS011;39768;54.148;12.174;2022-08-19T15:54:21;11.85;;;6.82;;
53513;SDS011;39768;54.148;12.174;2022-08-19T15:58:23;10.63;;;6.43;;
53513;SDS011;39768;54.148;12.174;2022-08-19T16:02:44;10.27;;;6.40;;
53513;SDS011;39768;54.148;12.174;2022-08-19T16:07:04;14.77;;;6.57;;
53513;SDS011;39768;54.148;12.174;2022-08-19T16:11:10;8.40;;;5.93;;
53513;SDS011;39768;54.148;12.174;2022-08-19T16:15:20;7.75;;;5.53;;
53513;SDS011;39768;54.148;12.174;2022-08-19T16:19:22;7.90;;;6.10;;
53513;SDS011;39768;54.148;12.174;2022-08-19T16:23:24;11.48;;;5.78;;
53513;SDS011;39768;54.148;12.174;2022-08-19T16:27:25;9.02;;;5.43;;
53513;SDS011;39768;54.148;12.174;2022-08-19T16:31:27;8.18;;;5.50;;
53513;SDS011;39768;54.148;12.174;2022-08-19T16:35:29;7.78;;;5.05;;
53513;SDS011;39768;54.148;12.174;2022-08-19T16:39:30;5.88;;;4.97;;
53513;SDS011;39768;54.148;12.174;2022-08-19T16:43:32;5.97;;;5.13;;
53513;SDS011;39768;54.148;12.174;2022-08-19T16:47:34;7.82;;;5.22;;
53513;SDS011;39768;54.148;12.174;2022-08-19T16:51:37;9.45;;;5.25;;
53513;SDS011;39768;54.148;12.174;2022-08-19T16:55:39;7.70;;;5.57;;
53513;SDS011;39768;54.148;12.174;2022-08-19T16:59:41;12.02;;;6.10;;
53513;SDS011;39768;54.148;12.174;2022-08-19T17:03:49;10.77;;;6.07;;
53513;SDS011;39768;54.148;12.174;2022-08-19T17:07:52;5.55;;;5.00;;
53513;SDS011;39768;54.148;12.174;2022-08-19T17:11:54;23.60;;;11.70;;
53513;SDS011;39768;54.148;12.174;2022-08-19T17:15:56;12.50;;;8.02;;
53513;SDS011;39768;54.148;12.174;2022-08-19T17:19:58;7.82;;;5.57;;
53513;SDS011;39768;54.148;12.174;2022-08-19T17:24:01;10.45;;;6.40;;
53513;SDS011;39768;54.148;12.174;2022-08-19T17:28:08;11.00;;;6.25;;
53513;SDS011;39768;54.148;12.174;2022-08-19T17:32:13;11.30;;;7.10;;
53513;SDS011;39768;54.148;12.174;2022-08-19T17:36:19;13.05;;;7.05;;
53513;SDS011;39768;54.148;12.174;2022-08-19T17:40:23;8.48;;;5.88;;
53513;SDS011;39768;54.148;12.174;2022-08-19T17:44:29;7.03;;;5.30;;
53513;SDS011;39768;54.148;12.174;2022-08-19T17:48:33;11.38;;;6.90;;
53513;SDS011;39768;54.148;12.174;2022-08-19T17:52:43;16.25;;;7.15;;
53513;SDS011;39768;54.148;12.174;2022-08-19T17:56:44;10.15;;;6.97;;
53513;SDS011;39768;54.148;12.174;2022-08-19T18:00:46;12.80;;;6.05;;
53513;SDS011;39768;54.148;12.174;2022-08-19T18:04:54;13.32;;;6.07;;
53513;SDS011;39768;54.148;12.174;2022-08-19T18:08:56;8.80;;;5.90;;
53513;SDS011;39768;54.148;12.174;2022-08-19T18:12:58;11.05;;;5.93;;
53513;SDS011;39768;54.148;12.174;2022-08-19T18:17:04;15.10;;;7.38;;
53513;SDS011;39768;54.148;12.174;2022-08-19T18:21:09;12.25;;;6.47;;
53513;SDS011;39768;54.148;12.174;2022-08-19T18:25:12;14.15;;;6.90;;
53513;SDS011;39768;54.148;12.174;2022-08-19T18:29:15;13.52;;;6.68;;
53513;SDS011;39768;54.148;12.174;2022-08-19T18:33:16;13.23;;;6.88;;
53513;SDS011;39768;54.148;12.174;2022-08-19T18:37:18;11.27;;;6.90;;
53513;SDS011;39768;54.148;12.174;2022-08-19T18:41:20;13.82;;;6.15;;
53513;SDS011;39768;54.148;12.174;2022-08-19T18:45:40;21.30;;;7.20;;
53513;SDS011;39768;54.148;12.174;2022-08-19T18:50:02;13.13;;;6.72;;
53513;SDS011;39768;54.148;12.174;2022-08-19T18:54:12;8.75;;;6.05;;
53513;SDS011;39768;54.148;12.174;2022-08-19T18:58:13;10.10;;;5.78;;
53513;SDS011;39768;54.148;12.174;2022-08-19T19:02:15;15.73;;;6.70;;
53513;SDS011;39768;54.148;12.174;2022-08-19T19:06:20;9.20;;;6.15;;
53513;SDS011;39768;54.148;12.174;2022-08-19T19:10:24;12.60;;;6.60;;
53513;SDS011;39768;54.148;12.174;2022-08-19T19:14:30;14.38;;;6.97;;
53513;SDS011;39768;54.148;12.174;2022-08-19T19:18:49;13.65;;;7.35;;
53513;SDS011;39768;54.148;12.174;2022-08-19T19:22:54;13.43;;;6.70;;
53513;SDS011;39768;54.148;12.174;2022-08-19T19:26:59;11.68;;;6.68;;
53513;SDS011;39768;54.148;12.174;2022-08-19T19:31:07;11.85;;;5.88;;
53513;SDS011;39768;54.148;12.174;2022-08-19T19:35:12;11.20;;;5.82;;
53513;SDS011;39768;54.148;12.174;2022-08-19T19:39:14;13.75;;;6.38;;
53513;SDS011;39768;54.148;12.174;2022-08-19T19:43:36;12.50;;;5.80;;
53513;SDS011;39768;54.148;12.174;2022-08-19T19:47:41;8.88;;;5.20;;
53513;SDS011;39768;54.148;12.174;2022-08-19T19:51:44;9.82;;;5.95;;
53513;SDS011;39768;54.148;12.174;2022-08-19T19:55:46;13.93;;;5.45;;
53513;SDS011;39768;54.148;12.174;2022-08-19T19:59:48;10.73;;;5.68;;
53513;SDS011;39768;54.148;12.174;2022-08-19T20:03:52;8.05;;;5.03;;
53513;SDS011;39768;54.148;12.174;2022-08-19T20:07:54;8.15;;;4.97;;
53513;SDS011;39768;54.148;12.174;2022-08-19T20:12:14;7.30;;;5.13;;
53513;SDS011;39768;54.148;12.174;2022-08-19T20:16:16;10.15;;;5.70;;
53513;SDS011;39768;54.148;12.174;2022-08-19T20:20:18;9.02;;;5.80;;
53513;SDS011;39768;54.148;12.174;2022-08-19T20:24:21;7.72;;;4.95;;
53513;SDS011;39768;54.148;12.174;2022-08-19T20:28:26;10.38;;;5.07;;
53513;SDS011;39768;54.148;12.174;2022-08-19T20:32:28;15.05;;;6.13;;
53513;SDS011;39768;54.148;12.174;2022-08-19T20:36:30;11.20;;;6.50;;
53513;SDS011;39768;54.148;12.174;2022-08-19T20:40:32;11.70;;;6.40;;
53513;SDS011;39768;54.148;12.174;2022-08-19T20:44:36;12.93;;;6.43;;
53513;SDS011;39768;54.148;12.174;2022-08-19T20:48:38;10.40;;;5.72;;
53513;SDS011;39768;54.148;12.174;2022-08-19T20:52:42;10.55;;;6.05;;
53513;SDS011;39768;54.148;12.174;2022-08-19T20:56:53;7.28;;;5.28;;
53513;SDS011;39768;54.148;12.174;2022-08-19T21:00:56;9.65;;;5.32;;
53513;SDS011;39768;54.148;12.174;2022-08-19T21:05:00;7.60;;;5.13;;
53513;SDS011;39768;54.148;12.174;2022-08-19T21:09:03;9.35;;;5.28;;
53513;SDS011;39768;54.148;12.174;2022-08-19T21:13:05;11.50;;;5.25;;
53513;SDS011;39768;54.148;12.174;2022-08-19T21:17:06;9.30;;;5.32;;
53513;SDS011;39768;54.148;12.174;2022-08-19T21:21:08;6.22;;;4.70;;
53513;SDS011;39768;54.148;12.174;2022-08-19T21:25:09;8.57;;;4.88;;
53513;SDS011;39768;54.148;12.174;2022-08-19T21:29:11;8.43;;;5.32;;
53513;SDS011;39768;54.148;12.174;2022-08-19T21:33:12;8.32;;;5.05;;
53513;SDS011;39768;54.148;12.174;2022-08-19T21:37:16;6.15;;;4.47;;
53513;SDS011;39768;54.148;12.174;2022-08-19T21:41:25;8.55;;;5.43;;
53513;SDS011;39768;54.148;12.174;2022-08-19T21:45:27;10.65;;;6.07;;
53513;SDS011;39768;54.148;12.174;2022-08-19T21:49:30;9.73;;;5.15;;
53513;SDS011;39768;54.148;12.174;2022-08-19T21:53:34;10.32;;;5.95;;
53513;SDS011;39768;54.148;12.174;2022-08-19T21:57:35;16.63;;;5.90;;
53513;SDS011;39768;54.148;12.174;2022-08-19T22:01:39;8.23;;;5.38;;
53513;SDS011;39768;54.148;12.174;2022-08-19T22:05:45;14.63;;;6.35;;
53513;SDS011;39768;54.148;12.174;2022-08-19T22:09:47;13.52;;;6.72;;
53513;SDS011;39768;54.148;12.174;2022-08-19T22:13:50;14.20;;;6.72;;
53513;SDS011;39768;54.148;12.174;2022-08-19T22:17:54;8.68;;;5.65;;
53513;SDS011;39768;54.148;12.174;2022-08-19T22:21:57;17.30;;;6.35;;
53513;SDS011;39768;54.148;12.174;2022-08-19T22:25:59;9.02;;;5.28;;
53513;SDS011;39768;54.148;12.174;2022-08-19T22:30:03;10.50;;;4.82;;
53513;SDS011;39768;54.148;12.174;2022-08-19T22:34:10;9.95;;;5.53;;
53513;SDS011;39768;54.148;12.174;2022-08-19T22:38:12;9.02;;;5.05;;
53513;SDS011;39768;54.148;12.174;2022-08-19T22:42:21;8.93;;;5.38;;
53513;SDS011;39768;54.148;12.174;2022-08-19T22:46:22;11.95;;;5.63;;
53513;SDS011;39768;54.148;12.174;2022-08-19T22:50:24;8.68;;;5.72;;
53513;SDS011;39768;54.148;12.174;2022-08-19T22:54:26;12.52;;;5.85;;
53513;SDS011;39768;54.148;12.174;2022-08-19T22:58:28;10.50;;;5.20;;
53513;SDS011;39768;54.148;12.174;2022-08-19T23:02:32;8.52;;;5.68;;
53513;SDS011;39768;54.148;12.174;2022-08-19T23:06:38;10.38;;;5.60;;
53513;SDS011;39768;54.148;12.174;2022-08-19T23:10:42;11.82;;;5.43;;
53513;SDS011;39768;54.148;12.174;2022-08-19T23:14:44;13.20;;;5.53;;
53513;SDS011;39768;54.148;12.174;2022-08-19T23:18:46;10.93;;;5.30;;
53513;SDS011;39768;54.148;12.174;2022-08-19T23:22:48;8.93;;;5.90;;
53513;SDS011;39768;54.148;12.174;2022-08-19T23:26:51;8.65;;;4.57;;
53513;SDS011;39768;54.148;12.174;2022-08-19T23:31:11;6.22;;;4.63;;
53513;SDS011;39768;54.148;12.174;2022-08-19T23:35:12;9.55;;;5.50;;
53513;SDS011;39768;54.148;12.174;2022-08-19T23:39:14;10.65;;;5.75;;
53513;SDS011;39768;54.148;12.174;2022-08-19T23:43:16;7.80;;;5.20;;
53513;SDS011;39768;54.148;12.174;2022-08-19T23:47:25;11.15;;;5.97;;
53513;SDS011;39768;54.148;12.174;2022-08-19T23:51:27;10.27;;;5.57;;
53513;SDS011;39768;54.148;12.174;2022-08-19T23:55:30;11.85;;;5.57;;
53513;SDS011;39768;54.148;12.174;2022-08-19T23:59:35;12.65;;;5.97;;
